createdAt,value
2019-03-20T00:01:59.383Z,3.80
2019-03-20T00:07:02.252Z,3.80
2019-03-20T00:12:05.062Z,3.80
2019-03-20T00:17:07.803Z,3.80
2019-03-20T00:22:10.682Z,3.80
2019-03-20T00:27:14.754Z,3.90
2019-03-20T00:32:17.499Z,3.90
2019-03-20T00:37:20.344Z,3.80
2019-03-20T00:42:23.171Z,3.80
2019-03-20T00:47:25.991Z,3.80
2019-03-20T00:52:28.891Z,3.80
2019-03-20T00:57:31.563Z,3.80
2019-03-20T01:02:34.450Z,3.80
2019-03-20T01:07:37.197Z,3.80
2019-03-20T01:12:39.831Z,3.80
2019-03-20T01:17:42.634Z,3.80
2019-03-20T01:22:46.225Z,3.80
2019-03-20T01:27:49.118Z,3.80
2019-03-20T01:32:51.717Z,3.90
2019-03-20T01:37:54.352Z,4.00
2019-03-20T01:42:57.133Z,4.10
2019-03-20T01:47:59.940Z,4.10
2019-03-20T01:53:02.920Z,4.10
2019-03-20T01:58:05.594Z,4.10
2019-03-20T02:03:08.314Z,4.10
2019-03-20T02:08:10.955Z,4.10
2019-03-20T02:13:16.697Z,4.20
2019-03-20T02:18:19.479Z,4.20
2019-03-20T02:23:22.286Z,4.20
2019-03-20T02:28:25.074Z,4.20
2019-03-20T02:33:27.808Z,4.20
2019-03-20T02:38:30.537Z,4.20
2019-03-20T02:43:33.462Z,4.30
2019-03-20T02:48:36.153Z,4.30
2019-03-20T02:53:38.881Z,4.30
2019-03-20T02:58:41.620Z,4.30
2019-03-20T03:03:44.621Z,4.20
2019-03-20T03:08:47.356Z,4.30
2019-03-20T03:13:50.180Z,4.30
2019-03-20T03:18:53.034Z,4.30
2019-03-20T03:23:55.867Z,4.40
2019-03-20T03:28:58.635Z,4.40
2019-03-20T03:34:01.416Z,4.40
2019-03-20T03:39:06.361Z,4.50
2019-03-20T03:44:09.073Z,4.40
2019-03-20T03:49:11.831Z,4.50
2019-03-20T03:54:14.562Z,4.50
2019-03-20T03:59:17.249Z,4.50
2019-03-20T04:04:19.985Z,4.50
2019-03-20T04:09:22.705Z,4.40
2019-03-20T04:14:25.396Z,4.40
2019-03-20T04:19:28.011Z,4.50
2019-03-20T04:24:30.748Z,4.40
2019-03-20T04:29:33.388Z,4.40
2019-03-20T04:34:36.003Z,4.30
2019-03-20T04:39:40.255Z,4.30
2019-03-20T04:44:42.924Z,4.30
2019-03-20T04:49:45.652Z,4.30
2019-03-20T04:54:48.395Z,4.30
2019-03-20T04:59:51.159Z,4.30
2019-03-20T05:04:53.833Z,4.30
2019-03-20T05:09:56.404Z,4.30
2019-03-20T05:14:59.118Z,4.30
2019-03-20T05:20:01.994Z,4.40
2019-03-20T05:25:05.267Z,4.40
2019-03-20T05:30:08.924Z,4.40
2019-03-20T05:35:12.092Z,4.40
2019-03-20T05:40:14.698Z,4.40
2019-03-20T05:45:17.410Z,4.40
2019-03-20T05:50:20.792Z,4.40
2019-03-20T05:55:23.831Z,4.50
2019-03-20T06:00:29.181Z,4.50
2019-03-20T06:05:31.818Z,4.50
2019-03-20T06:10:35.114Z,4.50
2019-03-20T06:15:38.909Z,4.50
2019-03-20T06:20:41.779Z,4.50
2019-03-20T06:25:44.390Z,4.50
2019-03-20T06:30:47.066Z,4.60
2019-03-20T06:35:49.693Z,4.60
2019-03-20T06:40:52.284Z,4.60
2019-03-20T06:45:54.949Z,4.70
2019-03-20T06:50:57.616Z,4.70
2019-03-20T06:56:01.309Z,4.80
2019-03-20T07:01:18.531Z,4.80
2019-03-20T07:06:43.852Z,4.90
2019-03-20T07:11:46.989Z,5.00
2019-03-20T07:16:49.688Z,5.10
2019-03-20T07:21:52.427Z,5.10
2019-03-20T07:26:55.134Z,5.20
2019-03-20T07:31:57.924Z,5.30
2019-03-20T07:37:01.205Z,5.40
2019-03-20T07:42:03.988Z,5.30
2019-03-20T07:47:06.559Z,5.40
2019-03-20T07:52:09.338Z,5.40
2019-03-20T07:57:12.078Z,5.50
2019-03-20T08:02:14.716Z,5.60
2019-03-20T08:07:17.328Z,5.60
2019-03-20T08:12:19.908Z,5.70
2019-03-20T08:17:22.517Z,5.80
2019-03-20T08:22:25.227Z,5.90
2019-03-20T08:27:27.856Z,6.10
2019-03-20T08:32:30.555Z,6.20
2019-03-20T08:37:33.256Z,6.40
2019-03-20T08:42:36.019Z,6.50
2019-03-20T08:47:39.745Z,6.60
2019-03-20T08:52:43.602Z,6.70
2019-03-20T08:57:46.398Z,6.80
2019-03-20T09:02:50.572Z,6.80
2019-03-20T09:07:53.329Z,6.80
2019-03-20T09:12:55.987Z,6.80
2019-03-20T09:17:58.669Z,6.80
2019-03-20T09:23:07.425Z,6.90
2019-03-20T09:28:10.003Z,7.00
2019-03-20T09:33:12.780Z,7.00
2019-03-20T09:38:15.497Z,7.00
2019-03-20T09:43:18.128Z,7.00
2019-03-20T09:48:21.967Z,7.10
2019-03-20T09:53:27.661Z,7.10
2019-03-20T09:58:30.411Z,7.20
2019-03-20T10:03:33.187Z,7.30
2019-03-20T10:08:35.872Z,7.40
2019-03-20T10:13:38.579Z,7.50
2019-03-20T10:18:41.201Z,7.50
2019-03-20T10:23:43.904Z,7.60
2019-03-20T10:28:46.712Z,7.60
2019-03-20T10:33:49.504Z,7.80
2019-03-20T10:38:52.350Z,8.00
2019-03-20T10:43:55.203Z,8.10
2019-03-20T10:48:57.935Z,8.30
2019-03-20T10:54:00.693Z,8.50
2019-03-20T10:59:03.437Z,8.60
2019-03-20T11:04:06.149Z,8.60
2019-03-20T11:09:17.653Z,8.80
2019-03-20T11:14:13.345Z,8.90
2019-03-20T11:19:16.178Z,8.70
2019-03-20T11:24:18.946Z,8.90
2019-03-20T11:29:21.985Z,9.10
2019-03-20T11:34:25.008Z,9.10
2019-03-20T11:39:29.860Z,9.40
2019-03-20T11:44:32.261Z,9.20
2019-03-20T11:49:34.947Z,9.40
2019-03-20T11:54:37.634Z,9.40
2019-03-20T11:59:40.296Z,9.60
2019-03-20T12:04:42.973Z,9.90
2019-03-20T12:09:45.748Z,10.20
2019-03-20T12:14:48.379Z,10.10
2019-03-20T12:19:51.099Z,10.20
2019-03-20T12:24:53.896Z,10.20
2019-03-20T12:29:56.588Z,10.80
2019-03-20T12:34:59.324Z,10.70
2019-03-20T12:40:02.124Z,10.20
2019-03-20T12:45:09.426Z,10.20
2019-03-20T12:50:12.239Z,10.40
2019-03-20T12:55:14.936Z,11.10
2019-03-20T13:00:19.179Z,10.90
2019-03-20T13:05:22.065Z,10.50
2019-03-20T13:10:25.113Z,10.30
2019-03-20T13:15:30.317Z,10.30
2019-03-20T13:20:33.027Z,10.60
2019-03-20T13:25:35.683Z,10.80
2019-03-20T13:30:41.391Z,10.70
2019-03-20T13:35:44.023Z,10.10
2019-03-20T13:40:46.723Z,10.10
2019-03-20T13:45:49.684Z,10.20
2019-03-20T13:50:52.353Z,10.10
2019-03-20T13:55:55.037Z,10.20
2019-03-20T14:00:57.738Z,10.30
2019-03-20T14:06:00.444Z,10.10
2019-03-20T14:11:03.231Z,10.20
2019-03-20T14:16:06.006Z,10.00
2019-03-20T14:21:08.756Z,9.90
2019-03-20T14:26:11.490Z,10.30
2019-03-20T14:31:14.164Z,10.90
2019-03-20T14:36:16.939Z,10.90
2019-03-20T14:41:21.701Z,10.90
2019-03-20T14:46:25.221Z,10.60
2019-03-20T14:51:28.063Z,10.80
2019-03-20T14:56:30.914Z,10.70
2019-03-20T15:01:34.015Z,10.50
2019-03-20T15:06:36.670Z,10.30
2019-03-20T15:11:39.346Z,9.80
2019-03-20T15:16:42.132Z,9.40
2019-03-20T15:21:44.952Z,9.00
2019-03-20T15:26:47.699Z,8.80
2019-03-20T15:31:50.703Z,8.90
2019-03-20T15:36:53.405Z,8.90
2019-03-20T15:41:56.156Z,8.90
2019-03-20T15:46:59.044Z,9.00
2019-03-20T15:52:01.901Z,9.10
2019-03-20T15:57:04.658Z,8.90
2019-03-20T16:02:07.352Z,8.60
2019-03-20T16:07:10.157Z,8.50
2019-03-20T16:12:14.009Z,8.40
2019-03-20T16:17:16.848Z,8.40
2019-03-20T16:22:19.580Z,8.20
2019-03-20T16:27:22.348Z,7.90
2019-03-20T16:32:26.194Z,7.80
2019-03-20T16:37:29.140Z,7.80
2019-03-20T16:42:32.099Z,7.70
2019-03-20T16:47:34.725Z,7.50
2019-03-20T16:52:37.355Z,7.40
2019-03-20T16:57:40.464Z,7.20
2019-03-20T17:02:43.202Z,7.20
2019-03-20T17:07:45.812Z,7.20
2019-03-20T17:12:48.638Z,7.10
2019-03-20T17:17:51.507Z,7.00
2019-03-20T17:22:54.619Z,6.90
2019-03-20T17:27:57.478Z,6.80
2019-03-20T17:33:00.206Z,6.70
2019-03-20T17:38:03.315Z,6.70
2019-03-20T17:43:06.947Z,6.60
2019-03-20T17:48:09.540Z,6.60
2019-03-20T17:53:12.307Z,6.60
2019-03-20T17:58:15.064Z,6.60
2019-03-20T18:03:17.807Z,6.60
2019-03-20T18:08:20.566Z,6.60
2019-03-20T18:13:24.218Z,6.60
2019-03-20T18:18:26.992Z,6.50
2019-03-20T18:23:29.723Z,6.50
2019-03-20T18:28:32.539Z,6.50
2019-03-20T18:33:35.344Z,6.50
2019-03-20T18:38:38.091Z,6.50
2019-03-20T18:43:40.770Z,6.50
2019-03-20T18:48:43.713Z,6.50
2019-03-20T18:53:47.800Z,6.50
2019-03-20T18:58:51.671Z,6.50
2019-03-20T19:04:02.808Z,6.40
2019-03-20T19:09:07.690Z,6.40
2019-03-20T19:14:11.956Z,6.40
2019-03-20T19:19:14.757Z,6.40
2019-03-20T19:24:17.502Z,6.40
2019-03-20T19:29:20.376Z,6.40
2019-03-20T19:34:23.310Z,6.40
2019-03-20T19:39:26.110Z,6.50
2019-03-20T19:44:29.334Z,6.40
2019-03-20T19:49:32.506Z,6.40
2019-03-20T19:54:36.942Z,6.40
2019-03-20T19:59:39.966Z,6.50
2019-03-20T20:04:43.319Z,6.40
2019-03-20T20:09:46.372Z,6.50
2019-03-20T20:14:49.998Z,6.50
2019-03-20T20:19:53.359Z,6.50
2019-03-20T20:24:57.010Z,6.50
2019-03-20T20:30:00.350Z,6.60
2019-03-20T20:35:03.778Z,6.60
2019-03-20T20:40:08.597Z,6.60
2019-03-20T20:45:12.187Z,6.60
2019-03-20T20:50:17.942Z,6.60
2019-03-20T20:55:20.531Z,6.70
2019-03-20T21:00:23.441Z,6.80
2019-03-20T21:05:26.298Z,6.80
2019-03-20T21:10:29.040Z,6.90
2019-03-20T21:15:58.677Z,6.90
2019-03-20T21:21:01.813Z,7.00
2019-03-20T21:26:05.106Z,7.10
2019-03-20T21:31:24.330Z,7.10
2019-03-20T21:36:44.460Z,7.20
2019-03-20T21:42:25.012Z,7.20
2019-03-20T21:47:33.813Z,7.20
2019-03-20T21:52:37.361Z,7.10
2019-03-20T21:58:08.537Z,7.00
2019-03-20T22:03:11.791Z,7.00
2019-03-20T22:08:15.126Z,6.90
2019-03-20T22:13:31.257Z,6.90
2019-03-20T22:19:00.356Z,6.80
2019-03-20T22:24:39.331Z,6.70
2019-03-20T22:29:42.607Z,6.80
2019-03-20T22:35:22.693Z,6.90
2019-03-20T22:41:10.664Z,6.80
2019-03-20T22:46:59.764Z,6.90
2019-03-20T22:58:50.455Z,6.80
2019-03-20T23:03:58.646Z,6.80
2019-03-20T23:09:01.883Z,6.70
2019-03-20T23:14:07.029Z,6.60
2019-03-20T23:19:24.034Z,6.60
2019-03-20T23:24:27.248Z,6.60
2019-03-20T23:29:30.654Z,6.70
2019-03-20T23:34:34.059Z,6.70
2019-03-20T23:39:37.449Z,6.60
2019-03-20T23:44:40.774Z,6.60
2019-03-20T23:49:45.242Z,6.60
2019-03-20T23:54:51.505Z,6.60
2019-03-20T23:59:56.790Z,6.70
